createdAt,value
2017-12-14T00:00:01.912Z,5.45
2017-12-14T00:01:11.632Z,5.48
2017-12-14T00:02:21.122Z,5.48
2017-12-14T00:03:30.935Z,5.48
2017-12-14T00:04:40.957Z,5.51
2017-12-14T00:05:50.863Z,5.58
2017-12-14T00:07:00.641Z,5.59
2017-12-14T00:08:10.093Z,5.56
2017-12-14T00:09:19.879Z,5.52
2017-12-14T00:10:29.335Z,5.63
2017-12-14T00:11:38.799Z,5.62
2017-12-14T00:12:48.522Z,5.67
2017-12-14T00:13:58.253Z,5.69
2017-12-14T00:15:07.977Z,5.69
2017-12-14T00:16:17.802Z,5.7
2017-12-14T00:17:27.787Z,5.63
2017-12-14T00:18:37.496Z,5.67
2017-12-14T00:19:47.492Z,5.74
2017-12-14T00:20:56.678Z,5.7
2017-12-14T00:22:06.395Z,5.67
2017-12-14T00:23:15.885Z,5.7
2017-12-14T00:24:25.378Z,5.69
2017-12-14T00:25:35.529Z,5.7
2017-12-14T00:26:45.251Z,5.66
2017-12-14T00:27:55.236Z,5.66
2017-12-14T00:29:05.259Z,5.69
2017-12-14T00:30:15.259Z,5.69
2017-12-14T00:31:25.243Z,5.77
2017-12-14T00:32:34.505Z,5.75
2017-12-14T00:33:44.271Z,5.77
2017-12-14T00:34:54.350Z,5.77
2017-12-14T00:36:03.826Z,5.74
2017-12-14T00:37:13.285Z,5.77
2017-12-14T00:38:23.052Z,5.67
2017-12-14T00:39:32.774Z,5.75
2017-12-14T00:40:42.493Z,5.77
2017-12-14T00:41:52.214Z,5.73
2017-12-14T00:43:02.244Z,5.78
2017-12-14T00:44:12.286Z,5.78
2017-12-14T00:45:22.264Z,5.84
2017-12-14T00:46:31.966Z,5.84
2017-12-14T00:47:41.953Z,5.84
2017-12-14T00:48:51.939Z,5.81
2017-12-14T00:50:01.656Z,5.83
2017-12-14T00:51:11.815Z,5.74
2017-12-14T00:52:21.531Z,5.74
2017-12-14T00:53:31.256Z,5.75
2017-12-14T00:54:41.237Z,5.67
2017-12-14T00:55:51.223Z,5.69
2017-12-14T00:57:00.951Z,5.67
2017-12-14T00:58:10.666Z,5.67
2017-12-14T00:59:20.384Z,5.77
2017-12-14T01:00:30.373Z,5.59
2017-12-14T01:01:40.365Z,5.67
2017-12-14T01:02:50.361Z,5.63
2017-12-14T01:04:00.351Z,5.69
2017-12-14T01:05:09.807Z,5.65
2017-12-14T01:06:19.532Z,5.7
2017-12-14T01:07:29.144Z,5.66
2017-12-14T01:08:38.611Z,5.73
2017-12-14T01:09:48.348Z,5.7
2017-12-14T01:10:58.072Z,5.65
2017-12-14T01:12:07.796Z,5.66
2017-12-14T01:13:17.257Z,5.62
2017-12-14T01:14:26.791Z,5.65
2017-12-14T01:15:36.270Z,5.74
2017-12-14T01:16:45.724Z,5.67
2017-12-14T01:17:55.451Z,5.69
2017-12-14T01:19:05.448Z,5.73
2017-12-14T01:20:15.174Z,5.65
2017-12-14T01:21:24.999Z,5.73
2017-12-14T01:22:34.991Z,5.67
2017-12-14T01:23:44.448Z,5.6
2017-12-14T01:24:53.915Z,5.65
2017-12-14T01:26:03.664Z,5.69
2017-12-14T01:27:13.649Z,5.65
2017-12-14T01:28:23.644Z,5.67
2017-12-14T01:29:33.101Z,5.67
2017-12-14T01:30:42.819Z,5.62
2017-12-14T01:31:52.540Z,5.58
2017-12-14T01:33:01.731Z,5.62
2017-12-14T01:34:11.498Z,5.59
2017-12-14T01:35:21.482Z,5.52
2017-12-14T01:36:31.506Z,5.45
2017-12-14T01:37:41.230Z,5.49
2017-12-14T01:38:51.231Z,5.48
2017-12-14T01:40:01.231Z,5.45
2017-12-14T01:41:10.699Z,5.45
2017-12-14T01:42:20.687Z,5.47
2017-12-14T01:43:30.415Z,5.48
2017-12-14T01:44:40.413Z,5.47
2017-12-14T01:45:50.139Z,5.45
2017-12-14T01:47:00.128Z,5.47
2017-12-14T01:48:09.865Z,5.4
2017-12-14T01:49:19.604Z,5.48
2017-12-14T01:50:29.099Z,5.45
2017-12-14T01:51:39.084Z,5.48
2017-12-14T01:52:48.812Z,5.47
2017-12-14T01:53:58.533Z,5.45
2017-12-14T01:55:07.993Z,5.47
2017-12-14T01:56:17.992Z,5.51
2017-12-14T01:57:27.986Z,5.47
2017-12-14T01:58:37.979Z,5.52
2017-12-14T01:59:47.970Z,5.49
2017-12-14T02:00:57.970Z,5.45
2017-12-14T02:02:07.439Z,5.49
2017-12-14T02:03:17.443Z,5.48
2017-12-14T02:04:26.897Z,5.48
2017-12-14T02:05:36.622Z,5.41
2017-12-14T02:06:46.348Z,5.52
2017-12-14T02:07:56.077Z,5.48
2017-12-14T02:09:05.794Z,5.45
2017-12-14T02:10:15.508Z,5.47
2017-12-14T02:11:25.224Z,5.49
2017-12-14T02:12:34.682Z,5.41
2017-12-14T02:13:44.402Z,5.47
2017-12-14T02:14:54.386Z,5.47
2017-12-14T02:16:04.369Z,5.48
2017-12-14T02:17:14.084Z,5.55
2017-12-14T02:18:23.805Z,5.52
2017-12-14T02:19:33.521Z,5.56
2017-12-14T02:20:43.240Z,5.55
2017-12-14T02:21:53.218Z,5.49
2017-12-14T02:23:03.205Z,5.49
2017-12-14T02:24:12.922Z,5.58
2017-12-14T02:25:22.635Z,5.59
2017-12-14T02:26:32.683Z,5.58
2017-12-14T02:27:42.663Z,5.59
2017-12-14T02:28:52.377Z,5.59
2017-12-14T02:30:02.356Z,5.6
2017-12-14T02:31:11.812Z,5.56
2017-12-14T02:32:21.792Z,5.56
2017-12-14T02:33:31.779Z,5.69
2017-12-14T02:34:41.772Z,5.67
2017-12-14T02:35:51.761Z,5.66
2017-12-14T02:37:01.774Z,5.59
2017-12-14T02:38:11.637Z,5.63
2017-12-14T02:39:20.832Z,5.6
2017-12-14T02:40:30.819Z,5.62
2017-12-14T02:41:40.575Z,5.58
2017-12-14T02:42:50.304Z,5.58
2017-12-14T02:44:00.030Z,5.65
2017-12-14T02:45:09.746Z,5.65
2017-12-14T02:46:19.461Z,5.6
2017-12-14T02:47:29.578Z,5.62
2017-12-14T02:48:39.407Z,5.63
2017-12-14T02:49:49.405Z,5.63
2017-12-14T02:50:59.430Z,5.73
2017-12-14T02:52:08.964Z,5.67
2017-12-14T02:53:18.959Z,5.7
2017-12-14T02:54:28.691Z,5.67
2017-12-14T02:55:38.683Z,5.66
2017-12-14T02:56:48.692Z,5.66
2017-12-14T02:57:58.768Z,5.65
2017-12-14T02:59:08.825Z,5.65
2017-12-14T03:00:18.808Z,5.74
2017-12-14T03:01:29.032Z,5.74
2017-12-14T03:02:39.202Z,5.67
2017-12-14T03:03:48.651Z,5.74
2017-12-14T03:04:58.366Z,5.75
2017-12-14T03:06:08.415Z,5.75
2017-12-14T03:07:17.974Z,5.81
2017-12-14T03:08:27.691Z,5.73
2017-12-14T03:09:37.682Z,5.74
2017-12-14T03:10:47.947Z,5.75
2017-12-14T03:11:57.669Z,5.77
2017-12-14T03:13:07.385Z,5.78
2017-12-14T03:14:17.360Z,5.77
2017-12-14T03:15:27.339Z,5.73
2017-12-14T03:16:37.062Z,5.66
2017-12-14T03:17:46.876Z,5.66
2017-12-14T03:18:56.862Z,5.66
2017-12-14T03:20:06.841Z,5.58
2017-12-14T03:21:16.827Z,5.6
2017-12-14T03:22:26.642Z,5.48
2017-12-14T03:23:36.626Z,5.52
2017-12-14T03:24:46.604Z,5.48
2017-12-14T03:25:56.320Z,5.44
2017-12-14T03:27:06.045Z,5.32
2017-12-14T03:28:15.492Z,5.23
2017-12-14T03:29:25.239Z,5.15
2017-12-14T03:30:35.235Z,5.02
2017-12-14T03:31:45.031Z,4.91
2017-12-14T03:32:55.016Z,4.77
2017-12-14T03:34:05.002Z,4.59
2017-12-14T03:35:14.717Z,4.46
2017-12-14T03:36:24.709Z,4.26
2017-12-14T03:37:34.433Z,4.14
2017-12-14T03:38:44.413Z,3.93
2017-12-14T03:39:53.865Z,3.77
2017-12-14T03:41:03.844Z,3.68
2017-12-14T03:42:13.562Z,3.57
2017-12-14T03:43:23.601Z,3.49
2017-12-14T03:44:33.584Z,3.3
2017-12-14T03:45:43.569Z,3.26
2017-12-14T03:46:53.294Z,3.1
2017-12-14T03:48:03.278Z,3.07
2017-12-14T03:49:13.000Z,3.1
2017-12-14T03:50:22.717Z,3.08
2017-12-14T03:51:32.438Z,3.13
2017-12-14T03:52:41.620Z,3.08
2017-12-14T03:53:51.596Z,3.12
2017-12-14T03:55:01.049Z,3.05
2017-12-14T03:56:10.503Z,3.07
2017-12-14T03:57:20.220Z,3.07
2017-12-14T03:58:30.204Z,3.04
2017-12-14T03:59:40.187Z,2.99
2017-12-14T04:00:49.902Z,3.02
2017-12-14T04:01:59.878Z,3.13
2017-12-14T04:03:09.865Z,3.02
2017-12-14T04:04:19.854Z,2.92
2017-12-14T04:05:29.302Z,2.95
2017-12-14T04:06:39.011Z,2.95
2017-12-14T04:07:48.999Z,2.9
2017-12-14T04:08:58.976Z,2.89
2017-12-14T04:10:08.951Z,2.87
2017-12-14T04:11:18.665Z,2.81
2017-12-14T04:12:28.380Z,2.84
2017-12-14T04:13:38.103Z,2.84
2017-12-14T04:14:48.079Z,2.8
2017-12-14T04:15:58.058Z,2.81
2017-12-14T04:17:08.048Z,2.86
2017-12-14T04:18:18.023Z,2.83
2017-12-14T04:19:28.002Z,2.87
2017-12-14T04:20:37.449Z,2.83
2017-12-14T04:21:46.896Z,2.8
2017-12-14T04:22:56.977Z,2.8
2017-12-14T04:24:06.700Z,2.84
2017-12-14T04:25:16.420Z,2.8
2017-12-14T04:26:26.395Z,2.81
2017-12-14T04:27:35.850Z,2.86
2017-12-14T04:28:45.570Z,2.87
2017-12-14T04:29:55.288Z,2.81
2017-12-14T04:31:05.003Z,2.83
2017-12-14T04:32:14.721Z,2.86
2017-12-14T04:33:24.704Z,3.02
2017-12-14T04:34:34.422Z,2.95
2017-12-14T04:35:43.871Z,3.01
2017-12-14T04:36:53.852Z,3.08
2017-12-14T04:38:03.301Z,3.13
2017-12-14T04:39:13.378Z,3.15
2017-12-14T04:40:23.085Z,3.16
2017-12-14T04:41:33.110Z,3.22
2017-12-14T04:42:42.838Z,3.23
2017-12-14T04:43:52.833Z,3.26
2017-12-14T04:45:02.276Z,3.28
2017-12-14T04:46:11.986Z,3.26
2017-12-14T04:47:21.710Z,3.23
2017-12-14T04:48:30.892Z,3.37
2017-12-14T04:49:40.610Z,3.34
2017-12-14T04:50:50.326Z,3.35
2017-12-14T04:52:00.301Z,3.35
2017-12-14T04:53:10.008Z,3.46
2017-12-14T04:54:19.193Z,3.49
2017-12-14T04:55:28.903Z,3.44
2017-12-14T04:56:38.881Z,3.44
2017-12-14T04:57:48.963Z,3.42
2017-12-14T04:58:58.674Z,3.5
2017-12-14T05:00:07.881Z,3.44
2017-12-14T05:01:17.591Z,3.6
2017-12-14T05:02:27.055Z,3.54
2017-12-14T05:03:37.031Z,3.59
2017-12-14T05:04:47.015Z,3.6
2017-12-14T05:05:56.728Z,3.5
2017-12-14T05:07:06.704Z,3.67
2017-12-14T05:08:16.411Z,3.72
2017-12-14T05:09:25.864Z,3.68
2017-12-14T05:10:35.843Z,3.64
2017-12-14T05:11:45.559Z,3.6
2017-12-14T05:12:55.361Z,3.67
2017-12-14T05:14:05.351Z,3.7
2017-12-14T05:15:15.069Z,3.75
2017-12-14T05:16:25.051Z,3.71
2017-12-14T05:17:34.502Z,3.68
2017-12-14T05:18:44.480Z,3.77
2017-12-14T05:19:54.196Z,3.67
2017-12-14T05:21:03.904Z,3.67
2017-12-14T05:22:13.451Z,3.7
2017-12-14T05:23:23.221Z,3.68
2017-12-14T05:24:33.314Z,3.6
2017-12-14T05:25:43.027Z,3.6
2017-12-14T05:26:53.021Z,3.63
2017-12-14T05:28:03.000Z,3.62
2017-12-14T05:29:12.976Z,3.64
2017-12-14T05:30:22.420Z,3.68
2017-12-14T05:31:31.870Z,3.72
2017-12-14T05:32:41.591Z,3.67
2017-12-14T05:33:51.573Z,3.71
2017-12-14T05:35:01.022Z,3.71
2017-12-14T05:36:10.573Z,3.67
2017-12-14T05:37:20.285Z,3.62
2017-12-14T05:38:29.734Z,3.67
2017-12-14T05:39:39.454Z,3.71
2017-12-14T05:40:48.921Z,3.54
2017-12-14T05:41:58.638Z,3.53
2017-12-14T05:43:08.354Z,3.63
2017-12-14T05:44:18.477Z,3.64
2017-12-14T05:45:28.462Z,3.57
2017-12-14T05:46:38.060Z,3.53
2017-12-14T05:47:47.772Z,3.6
2017-12-14T05:48:57.747Z,3.46
2017-12-14T05:50:07.513Z,3.49
2017-12-14T05:51:16.430Z,3.44
2017-12-14T05:52:26.405Z,3.52
2017-12-14T05:53:36.120Z,3.46
2017-12-14T05:54:46.166Z,3.45
2017-12-14T05:55:56.147Z,3.44
2017-12-14T05:57:06.121Z,3.49
2017-12-14T05:58:15.304Z,3.49
2017-12-14T05:59:25.015Z,3.5
2017-12-14T06:00:33.935Z,3.41
2017-12-14T06:01:43.921Z,3.46
2017-12-14T06:02:53.406Z,3.42
2017-12-14T06:04:03.399Z,3.45
2017-12-14T06:05:13.374Z,3.37
2017-12-14T06:06:23.086Z,3.49
2017-12-14T06:07:32.802Z,3.46
2017-12-14T06:08:41.989Z,3.45
2017-12-14T06:09:51.734Z,3.57
2017-12-14T06:11:01.447Z,3.44
2017-12-14T06:12:10.631Z,3.44
2017-12-14T06:13:20.211Z,3.46
2017-12-14T06:14:29.973Z,3.45
2017-12-14T06:15:39.771Z,3.41
2017-12-14T06:16:49.485Z,3.49
2017-12-14T06:17:59.198Z,3.49
2017-12-14T06:19:08.909Z,3.53
2017-12-14T06:20:18.361Z,3.54
2017-12-14T06:21:27.547Z,3.63
2017-12-14T06:22:37.262Z,3.6
2017-12-14T06:23:47.241Z,3.57
2017-12-14T06:24:56.698Z,3.56
2017-12-14T06:26:06.415Z,3.56
2017-12-14T06:27:15.863Z,3.63
2017-12-14T06:28:25.852Z,3.63
2017-12-14T06:29:35.570Z,3.56
2017-12-14T06:30:45.287Z,3.68
2017-12-14T06:31:55.032Z,3.7
2017-12-14T06:33:05.006Z,3.68
2017-12-14T06:34:14.986Z,3.71
2017-12-14T06:35:24.999Z,3.74
2017-12-14T06:36:34.456Z,3.77
2017-12-14T06:37:44.172Z,3.74
2017-12-14T06:38:54.168Z,3.72
2017-12-14T06:40:03.892Z,3.74
2017-12-14T06:41:13.602Z,3.74
2017-12-14T06:42:23.363Z,3.75
2017-12-14T06:43:33.077Z,3.8
2017-12-14T06:44:43.057Z,3.8
2017-12-14T06:45:52.775Z,3.78
2017-12-14T06:47:01.969Z,3.72
2017-12-14T06:48:11.701Z,3.7
2017-12-14T06:49:21.460Z,3.7
2017-12-14T06:50:31.691Z,3.67
2017-12-14T06:51:41.671Z,3.63
2017-12-14T06:52:51.644Z,3.67
2017-12-14T06:54:01.090Z,3.62
2017-12-14T06:55:10.809Z,3.64
2017-12-14T06:56:19.993Z,3.67
2017-12-14T06:57:29.705Z,3.62
2017-12-14T06:58:39.685Z,3.49
2017-12-14T06:59:49.663Z,3.44
2017-12-14T07:00:59.381Z,3.42
2017-12-14T07:02:09.285Z,3.44
2017-12-14T07:03:19.637Z,3.41
2017-12-14T07:04:29.244Z,3.46
2017-12-14T07:05:38.708Z,3.46
2017-12-14T07:06:48.736Z,3.49
2017-12-14T07:07:58.455Z,3.49
2017-12-14T07:09:08.499Z,3.44
2017-12-14T07:10:18.277Z,3.54
2017-12-14T07:11:27.786Z,3.54
2017-12-14T07:12:37.523Z,3.67
2017-12-14T07:13:46.990Z,3.63
2017-12-14T07:14:56.440Z,3.59
2017-12-14T07:16:06.420Z,3.62
2017-12-14T07:17:16.403Z,3.68
2017-12-14T07:18:26.390Z,3.62
2017-12-14T07:19:35.579Z,3.63
2017-12-14T07:20:45.029Z,3.7
2017-12-14T07:21:55.109Z,3.78
2017-12-14T07:23:04.561Z,3.67
2017-12-14T07:24:13.747Z,3.72
2017-12-14T07:25:23.467Z,3.74
2017-12-14T07:26:33.455Z,3.7
2017-12-14T07:27:43.393Z,3.7
2017-12-14T07:28:52.877Z,3.72
2017-12-14T07:30:02.591Z,3.72
2017-12-14T07:31:12.305Z,3.75
2017-12-14T07:32:22.283Z,3.81
2017-12-14T07:33:32.055Z,3.8
2017-12-14T07:34:41.500Z,3.81
2017-12-14T07:35:51.486Z,3.89
2017-12-14T07:37:01.508Z,3.78
2017-12-14T07:38:11.485Z,3.89
2017-12-14T07:39:21.462Z,3.93
2017-12-14T07:40:31.218Z,3.89
2017-12-14T07:41:41.326Z,3.88
2017-12-14T07:42:51.067Z,3.93
2017-12-14T07:44:01.047Z,3.93
2017-12-14T07:45:11.026Z,3.93
2017-12-14T07:46:20.480Z,3.9
2017-12-14T07:47:30.194Z,3.82
2017-12-14T07:48:39.907Z,3.82
2017-12-14T07:49:49.635Z,3.92
2017-12-14T07:50:59.655Z,3.89
2017-12-14T07:52:09.103Z,3.82
2017-12-14T07:53:18.827Z,3.84
2017-12-14T07:54:28.016Z,3.93
2017-12-14T07:55:37.744Z,3.88
2017-12-14T07:56:47.731Z,3.93
2017-12-14T07:57:57.552Z,3.93
2017-12-14T07:59:07.277Z,3.93
2017-12-14T08:00:16.993Z,3.95
2017-12-14T08:01:26.752Z,3.96
2017-12-14T08:02:36.461Z,4.06
2017-12-14T08:03:46.444Z,3.98
2017-12-14T08:04:56.253Z,4.1
2017-12-14T08:06:06.298Z,4.1
2017-12-14T08:07:16.335Z,4.2
2017-12-14T08:08:25.682Z,4.28
2017-12-14T08:09:35.670Z,4.26
2017-12-14T08:10:45.450Z,4.25
2017-12-14T08:11:55.437Z,4.16
2017-12-14T08:13:04.898Z,4.18
2017-12-14T08:14:14.084Z,4.24
2017-12-14T08:15:24.065Z,4.28
2017-12-14T08:16:34.167Z,4.26
2017-12-14T08:17:44.491Z,4.35
2017-12-14T08:18:54.332Z,4.32
2017-12-14T08:20:04.409Z,4.36
2017-12-14T08:21:14.213Z,4.34
2017-12-14T08:22:23.666Z,4.38
2017-12-14T08:23:33.646Z,4.31
2017-12-14T08:24:43.629Z,4.36
2017-12-14T08:25:53.612Z,4.44
2017-12-14T08:27:03.065Z,4.39
2017-12-14T08:28:12.894Z,4.43
2017-12-14T08:29:22.620Z,4.42
2017-12-14T08:30:32.332Z,4.46
2017-12-14T08:31:42.455Z,4.56
2017-12-14T08:32:51.956Z,4.53
2017-12-14T08:34:01.407Z,4.5
2017-12-14T08:35:10.595Z,4.46
2017-12-14T08:36:20.065Z,4.57
2017-12-14T08:37:30.041Z,4.67
2017-12-14T08:38:39.500Z,4.68
2017-12-14T08:39:49.223Z,4.68
2017-12-14T08:40:58.943Z,4.75
2017-12-14T08:42:08.678Z,4.8
2017-12-14T08:43:18.716Z,4.94
2017-12-14T08:44:28.705Z,4.91
2017-12-14T08:45:38.419Z,5.01
2017-12-14T08:46:48.408Z,5.06
2017-12-14T08:47:57.858Z,5.14
2017-12-14T08:49:07.713Z,5.14
2017-12-14T08:50:17.427Z,5.26
2017-12-14T08:51:27.149Z,5.45
2017-12-14T08:52:37.179Z,5.47
2017-12-14T08:53:47.284Z,5.44
2017-12-14T08:54:57.154Z,5.52
2017-12-14T08:56:06.866Z,5.58
2017-12-14T08:57:16.586Z,5.42
2017-12-14T08:58:26.037Z,5.33
2017-12-14T08:59:35.757Z,5.29
2017-12-14T09:00:45.739Z,5.3
2017-12-14T09:01:54.929Z,5.33
2017-12-14T09:03:04.498Z,5.26
2017-12-14T09:04:14.514Z,5.24
2017-12-14T09:05:24.502Z,5.27
2017-12-14T09:06:34.504Z,5.23
2017-12-14T09:07:44.221Z,5.23
2017-12-14T09:08:54.064Z,5.3
2017-12-14T09:10:04.550Z,5.4
2017-12-14T09:11:13.897Z,5.47
2017-12-14T09:12:24.020Z,5.48
2017-12-14T09:13:34.174Z,5.42
2017-12-14T09:14:43.906Z,5.35
2017-12-14T09:15:53.934Z,5.29
2017-12-14T09:17:03.978Z,5.26
2017-12-14T09:18:14.447Z,5.29
2017-12-14T09:19:24.192Z,5.3
2017-12-14T09:20:33.944Z,5.22
2017-12-14T09:21:43.661Z,5.29
2017-12-14T09:22:53.386Z,5.29
2017-12-14T09:24:03.117Z,5.2
2017-12-14T09:25:12.321Z,5.29
2017-12-14T09:26:22.326Z,5.27
2017-12-14T09:27:32.083Z,5.2
2017-12-14T09:28:41.924Z,5.33
2017-12-14T09:29:51.641Z,5.33
2017-12-14T09:31:01.092Z,5.23
2017-12-14T09:32:10.867Z,5.29
2017-12-14T09:33:20.852Z,5.3
2017-12-14T09:34:30.838Z,5.41
2017-12-14T09:35:40.818Z,5.38
2017-12-14T09:36:50.540Z,5.45
2017-12-14T09:38:00.325Z,5.44
2017-12-14T09:39:10.310Z,5.51
2017-12-14T09:40:20.299Z,5.52
2017-12-14T09:41:30.318Z,5.6
2017-12-14T09:42:39.507Z,5.65
2017-12-14T09:43:49.228Z,5.49
2017-12-14T09:44:58.418Z,5.55
2017-12-14T09:46:07.873Z,5.44
2017-12-14T09:47:17.874Z,5.42
2017-12-14T09:48:27.589Z,5.55
2017-12-14T09:49:37.445Z,5.66
2017-12-14T09:50:47.164Z,5.63
2017-12-14T09:51:56.885Z,5.63
2017-12-14T09:53:06.870Z,5.52
2017-12-14T09:54:16.611Z,5.65
2017-12-14T09:55:26.601Z,5.59
2017-12-14T09:56:36.583Z,5.65
2017-12-14T09:57:46.350Z,5.66
2017-12-14T09:58:56.366Z,5.74
2017-12-14T10:00:06.207Z,5.84
2017-12-14T10:01:16.204Z,5.84
2017-12-14T10:02:25.932Z,5.7
2017-12-14T10:03:35.669Z,5.67
2017-12-14T10:04:45.115Z,5.75
2017-12-14T10:05:54.891Z,5.88
2017-12-14T10:07:04.931Z,5.87
2017-12-14T10:08:14.668Z,5.84
2017-12-14T10:09:24.653Z,5.85
2017-12-14T10:10:34.441Z,5.9
2017-12-14T10:11:43.641Z,5.9
2017-12-14T10:12:53.622Z,5.99
2017-12-14T10:14:03.345Z,6.05
2017-12-14T10:15:13.389Z,6.05
2017-12-14T10:16:23.206Z,6.32
2017-12-14T10:17:32.668Z,6.42
2017-12-14T10:18:42.709Z,6.61
2017-12-14T10:19:52.776Z,6.72
2017-12-14T10:21:02.692Z,6.72
2017-12-14T10:22:12.475Z,6.61
2017-12-14T10:23:21.928Z,6.64
2017-12-14T10:24:31.912Z,6.42
2017-12-14T10:25:41.381Z,6.25
2017-12-14T10:26:50.876Z,6.11
2017-12-14T10:28:00.373Z,6.11
2017-12-14T10:29:10.113Z,6.14
2017-12-14T10:30:19.873Z,6.05
2017-12-14T10:31:29.663Z,6.03
2017-12-14T10:32:39.405Z,6.11
2017-12-14T10:33:49.386Z,6.02
2017-12-14T10:34:59.405Z,6.01
2017-12-14T10:36:09.182Z,6.03
2017-12-14T10:37:18.785Z,6.05
2017-12-14T10:38:28.932Z,5.99
2017-12-14T10:39:38.719Z,6.01
2017-12-14T10:40:48.853Z,5.85
2017-12-14T10:41:58.849Z,5.96
2017-12-14T10:43:08.829Z,5.81
2017-12-14T10:44:18.544Z,5.75
2017-12-14T10:45:28.522Z,5.9
2017-12-14T10:46:38.718Z,5.87
2017-12-14T10:47:48.929Z,5.96
2017-12-14T10:48:59.283Z,5.99
2017-12-14T10:50:09.098Z,5.95
2017-12-14T10:51:18.555Z,5.9
2017-12-14T10:52:28.274Z,5.8
2017-12-14T10:53:38.061Z,5.88
2017-12-14T10:54:47.778Z,5.8
2017-12-14T10:55:57.785Z,5.95
2017-12-14T10:57:07.330Z,6.01
2017-12-14T10:58:17.420Z,6.06
2017-12-14T10:59:26.872Z,6.24
2017-12-14T11:00:36.641Z,6.11
2017-12-14T11:01:46.658Z,6.21
2017-12-14T11:02:56.243Z,6.16
2017-12-14T11:04:06.333Z,6.24
2017-12-14T11:05:16.288Z,6.17
2017-12-14T11:06:26.100Z,6.14
2017-12-14T11:07:35.556Z,6.17
2017-12-14T11:08:45.274Z,6.13
2017-12-14T11:09:55.000Z,6.14
2017-12-14T11:11:04.984Z,6.25
2017-12-14T11:12:14.985Z,6.19
2017-12-14T11:13:25.042Z,6.27
2017-12-14T11:14:34.504Z,6.51
2017-12-14T11:15:44.224Z,6.69
2017-12-14T11:16:53.764Z,6.91
2017-12-14T11:18:03.282Z,6.87
2017-12-14T11:19:13.017Z,6.89
2017-12-14T11:20:23.012Z,7.01
2017-12-14T11:21:32.737Z,6.99
2017-12-14T11:22:42.192Z,6.99
2017-12-14T11:23:51.919Z,6.97
2017-12-14T11:25:02.055Z,6.83
2017-12-14T11:26:11.555Z,6.63
2017-12-14T11:27:21.008Z,6.4
2017-12-14T11:28:30.736Z,6.39
2017-12-14T11:29:40.471Z,6.28
2017-12-14T11:30:49.962Z,6.13
2017-12-14T11:31:59.423Z,6.14
2017-12-14T11:33:09.211Z,6.08
2017-12-14T11:34:18.967Z,5.99
2017-12-14T11:35:28.450Z,6.02
2017-12-14T11:36:37.637Z,5.85
2017-12-14T11:37:47.673Z,5.9
2017-12-14T11:38:57.426Z,5.87
2017-12-14T11:40:07.187Z,5.9
2017-12-14T11:41:16.906Z,5.74
2017-12-14T11:42:26.635Z,5.73
2017-12-14T11:43:36.094Z,5.78
2017-12-14T11:44:45.282Z,5.62
2017-12-14T11:45:54.749Z,5.66
2017-12-14T11:47:04.740Z,5.58
2017-12-14T11:48:14.188Z,5.58
2017-12-14T11:49:23.961Z,5.55
2017-12-14T11:50:33.690Z,5.47
2017-12-14T11:51:43.416Z,5.59
2017-12-14T11:52:52.872Z,5.52
2017-12-14T11:54:02.865Z,5.58
2017-12-14T11:55:12.641Z,5.66
2017-12-14T11:56:22.362Z,5.6
2017-12-14T11:57:32.433Z,5.67
2017-12-14T11:58:42.203Z,5.55
2017-12-14T11:59:51.923Z,5.69
2017-12-14T12:01:01.377Z,5.73
2017-12-14T12:02:10.839Z,5.69
2017-12-14T12:03:20.841Z,5.62
2017-12-14T12:04:30.563Z,5.62
2017-12-14T12:05:40.277Z,5.67
2017-12-14T12:06:50.337Z,5.66
2017-12-14T12:08:00.083Z,5.65
2017-12-14T12:09:09.812Z,5.55
2017-12-14T12:10:19.864Z,5.6
2017-12-14T12:11:29.596Z,5.59
2017-12-14T12:12:39.045Z,5.59
2017-12-14T12:13:48.495Z,5.66
2017-12-14T12:14:58.498Z,5.65
2017-12-14T12:16:08.474Z,5.49
2017-12-14T12:17:18.206Z,5.49
2017-12-14T12:18:27.667Z,5.42
2017-12-14T12:19:37.381Z,5.58
2017-12-14T12:20:46.852Z,5.65
2017-12-14T12:21:56.592Z,5.69
2017-12-14T12:23:06.583Z,5.81
2017-12-14T12:24:16.408Z,5.77
2017-12-14T12:25:25.861Z,5.81
2017-12-14T12:26:35.346Z,5.78
2017-12-14T12:27:44.529Z,5.8
2017-12-14T12:28:54.511Z,5.99
2017-12-14T12:30:03.987Z,6.01
2017-12-14T12:31:14.025Z,5.87
2017-12-14T12:32:23.477Z,5.96
2017-12-14T12:33:32.932Z,5.8
2017-12-14T12:34:42.386Z,5.78
2017-12-14T12:35:51.869Z,5.7
2017-12-14T12:37:01.914Z,5.65
2017-12-14T12:38:11.645Z,5.7
2017-12-14T12:39:21.142Z,5.63
2017-12-14T12:40:30.593Z,5.66
2017-12-14T12:41:40.052Z,5.52
2017-12-14T12:42:50.047Z,5.47
2017-12-14T12:44:00.065Z,5.48
2017-12-14T12:45:09.263Z,5.37
2017-12-14T12:46:18.548Z,5.45
2017-12-14T12:47:28.526Z,5.47
2017-12-14T12:48:38.508Z,5.49
2017-12-14T12:49:48.485Z,5.52
2017-12-14T12:50:57.872Z,5.49
2017-12-14T12:52:07.331Z,5.59
2017-12-14T12:53:17.085Z,5.63
2017-12-14T12:54:27.168Z,5.65
2017-12-14T12:55:36.904Z,5.6
2017-12-14T12:56:46.501Z,5.62
2017-12-14T12:57:56.492Z,5.52
2017-12-14T12:59:06.005Z,5.63
2017-12-14T13:00:16.060Z,5.66
2017-12-14T13:01:25.823Z,5.69
2017-12-14T13:02:35.270Z,5.75
2017-12-14T13:03:45.323Z,5.77
2017-12-14T13:04:55.308Z,5.74
2017-12-14T13:06:05.315Z,5.77
2017-12-14T13:07:15.047Z,5.75
2017-12-14T13:08:25.045Z,5.62
2017-12-14T13:09:35.033Z,5.65
2017-12-14T13:10:44.776Z,5.59
2017-12-14T13:11:54.378Z,5.65
2017-12-14T13:13:03.830Z,5.75
2017-12-14T13:14:13.549Z,5.73
2017-12-14T13:15:23.542Z,5.77
2017-12-14T13:16:33.531Z,5.81
2017-12-14T13:17:42.999Z,5.84
2017-12-14T13:18:53.114Z,5.78
2017-12-14T13:20:03.101Z,5.62
2017-12-14T13:21:12.565Z,5.49
2017-12-14T13:22:22.064Z,5.45
2017-12-14T13:23:31.833Z,5.48
2017-12-14T13:24:41.845Z,5.47
2017-12-14T13:25:51.311Z,5.45
2017-12-14T13:27:01.107Z,5.45
2017-12-14T13:28:11.157Z,5.48
2017-12-14T13:29:20.609Z,5.6
2017-12-14T13:30:30.099Z,5.55
2017-12-14T13:31:40.093Z,5.59
2017-12-14T13:32:49.545Z,5.63
2017-12-14T13:33:59.291Z,5.7
2017-12-14T13:35:09.294Z,5.58
2017-12-14T13:36:19.045Z,5.63
2017-12-14T13:37:28.504Z,5.75
2017-12-14T13:38:38.489Z,5.69
2017-12-14T13:39:48.090Z,5.73
2017-12-14T13:40:57.719Z,5.73
2017-12-14T13:42:07.048Z,5.73
2017-12-14T13:43:16.780Z,5.63
2017-12-14T13:44:26.765Z,5.62
2017-12-14T13:45:36.491Z,5.62
2017-12-14T13:46:46.213Z,5.66
2017-12-14T13:47:55.981Z,5.62
2017-12-14T13:49:05.680Z,5.63
2017-12-14T13:50:15.734Z,5.7
2017-12-14T13:51:26.006Z,5.67
2017-12-14T13:52:35.733Z,5.65
2017-12-14T13:53:45.749Z,5.73
2017-12-14T13:54:55.765Z,5.78
2017-12-14T13:56:05.765Z,5.77
2017-12-14T13:57:15.852Z,5.73
2017-12-14T13:58:25.667Z,5.75
2017-12-14T13:59:35.672Z,5.63
2017-12-14T14:00:45.681Z,5.73
2017-12-14T14:01:55.666Z,5.77
2017-12-14T14:03:05.439Z,5.81
2017-12-14T14:04:15.540Z,5.66
2017-12-14T14:05:25.521Z,5.63
2017-12-14T14:06:35.511Z,5.63
2017-12-14T14:07:44.982Z,5.63
2017-12-14T14:08:54.448Z,5.8
2017-12-14T14:10:03.911Z,5.83
2017-12-14T14:11:13.640Z,5.67
2017-12-14T14:12:23.625Z,5.7
2017-12-14T14:13:33.362Z,5.75
2017-12-14T14:14:42.820Z,5.9
2017-12-14T14:15:52.539Z,5.8
2017-12-14T14:17:02.146Z,5.67
2017-12-14T14:18:12.588Z,5.6
2017-12-14T14:19:22.343Z,5.59
2017-12-14T14:20:32.425Z,5.66
2017-12-14T14:21:42.695Z,5.49
2017-12-14T14:22:52.203Z,5.41
2017-12-14T14:24:01.659Z,5.35
2017-12-14T14:25:11.657Z,5.42
2017-12-14T14:26:21.381Z,5.42
2017-12-14T14:27:30.830Z,5.42
2017-12-14T14:28:40.558Z,5.27
2017-12-14T14:29:50.282Z,5.32
2017-12-14T14:30:59.477Z,5.24
2017-12-14T14:32:09.478Z,5.2
2017-12-14T14:33:19.198Z,5.09
2017-12-14T14:34:28.934Z,5.24
2017-12-14T14:35:38.395Z,5.19
2017-12-14T14:36:48.398Z,5.17
2017-12-14T14:37:58.154Z,5.17
2017-12-14T14:39:07.881Z,5.09
2017-12-14T14:40:17.340Z,5.19
2017-12-14T14:41:27.058Z,5.17
2017-12-14T14:42:36.796Z,5.17
2017-12-14T14:43:46.248Z,5.12
2017-12-14T14:44:55.971Z,5.09
2017-12-14T14:46:05.701Z,5.15
2017-12-14T14:47:15.184Z,5.12
2017-12-14T14:48:25.223Z,5.14
2017-12-14T14:49:34.993Z,5.17
2017-12-14T14:50:44.457Z,5.09
2017-12-14T14:51:54.443Z,5.11
2017-12-14T14:53:03.899Z,5.05
2017-12-14T14:54:13.937Z,5.08
2017-12-14T14:55:23.429Z,5.08
2017-12-14T14:56:33.427Z,5.12
2017-12-14T14:57:43.147Z,5.06
2017-12-14T14:58:52.620Z,5.05
2017-12-14T15:00:01.843Z,5.11
2017-12-14T15:01:11.300Z,5.14
2017-12-14T15:02:21.458Z,5.11
2017-12-14T15:03:31.259Z,5.04
2017-12-14T15:04:41.012Z,5.15
2017-12-14T15:05:51.164Z,5.17
2017-12-14T15:07:00.663Z,5.12
2017-12-14T15:08:10.124Z,5.17
2017-12-14T15:09:19.896Z,5.12
2017-12-14T15:10:29.618Z,5.08
2017-12-14T15:11:39.358Z,5.11
2017-12-14T15:12:49.102Z,4.97
2017-12-14T15:13:58.384Z,5.11
2017-12-14T15:15:07.842Z,5.05
2017-12-14T15:16:17.822Z,4.99
2017-12-14T15:17:27.876Z,5.01
2017-12-14T15:18:37.680Z,4.97
2017-12-14T15:19:47.399Z,4.87
2017-12-14T15:20:57.217Z,4.93
2017-12-14T15:22:07.259Z,4.94
2017-12-14T15:23:16.972Z,4.97
2017-12-14T15:24:26.794Z,4.93
2017-12-14T15:25:36.814Z,4.91
2017-12-14T15:26:46.638Z,4.9
2017-12-14T15:27:55.947Z,4.94
2017-12-14T15:29:05.731Z,4.96
2017-12-14T15:30:15.520Z,4.97
2017-12-14T15:31:25.352Z,4.99